Time;durP1;ratioP1;P1;durP2;ratioP2;P2;SDS_P1;SDS_P2;PMS_P1;PMS_P2;Temp;Humidity;BMP_temperature;BMP_pressure;BME280_temperature;BME280_humidity;BME280_pressure;Samples;Min_cycle;Max_cycle;Signal;HPM_P1;HPM_P2
2023/11/24 00:00:41;0.00;0.00;0.62;0.00;0.00;0.62;2.57;1.60;;;21.20;28.70;;;;;;2256382;61;20378;-59
2023/11/24 00:03:25;0.00;0.00;0.62;0.00;0.00;0.62;2.80;2.03;;;21.20;28.70;;;;;;2255991;61;20425;-57
2023/11/24 00:06:12;0.00;0.00;0.62;0.00;0.00;0.62;2.40;1.70;;;21.20;28.70;;;;;;2256365;61;20423;-61
2023/11/24 00:08:56;0.00;0.00;0.62;0.00;0.00;0.62;2.50;1.40;;;21.20;28.70;;;;;;2256368;61;20996;-60
2023/11/24 00:11:42;0.00;0.00;0.62;0.00;0.00;0.62;2.90;1.60;;;21.20;28.70;;;;;;2255468;61;20937;-59
2023/11/24 00:14:28;0.00;0.00;0.62;0.00;0.00;0.62;2.23;1.67;;;21.20;28.70;;;;;;2256334;61;20366;-57
2023/11/24 00:17:13;0.00;0.00;0.62;0.00;0.00;0.62;2.60;1.50;;;21.20;28.70;;;;;;2256542;61;20469;-58
2023/11/24 00:19:57;0.00;0.00;0.62;0.00;0.00;0.62;2.70;1.70;;;21.20;28.70;;;;;;2256106;61;20421;-61
2023/11/24 00:22:42;0.00;0.00;0.62;0.00;0.00;0.62;2.37;1.67;;;21.20;28.70;;;;;;2255997;61;20365;-58
2023/11/24 00:25:27;0.00;0.00;0.62;0.00;0.00;0.62;2.20;1.50;;;21.20;28.70;;;;;;2253168;61;20386;-58
2023/11/24 00:28:13;0.00;0.00;0.62;0.00;0.00;0.62;2.90;1.70;;;21.20;28.70;;;;;;2251995;61;20921;-60
2023/11/24 00:31:03;0.00;0.00;0.62;0.00;0.00;0.62;2.90;1.60;;;21.20;28.70;;;;;;2248912;61;20366;-60
2023/11/24 00:33:48;0.00;0.00;0.62;0.00;0.00;0.62;2.60;1.53;;;21.20;28.70;;;;;;2248308;61;20413;-61
2023/11/24 00:36:32;0.00;0.00;0.62;0.00;0.00;0.62;3.10;1.73;;;21.20;28.70;;;;;;2252056;61;20362;-60
2023/11/24 00:39:17;0.00;0.00;0.62;0.00;0.00;0.62;2.87;1.50;;;21.20;28.60;;;;;;2251960;61;20481;-59
2023/11/24 00:42:01;0.00;0.00;0.62;0.00;0.00;0.62;2.93;1.67;;;21.20;28.60;;;;;;2248187;61;20928;-59
2023/11/24 00:44:46;0.00;0.00;0.62;0.00;0.00;0.62;3.27;1.70;;;21.20;28.60;;;;;;2252248;61;20370;-58
2023/11/24 00:47:32;0.00;0.00;0.62;0.00;0.00;0.62;4.17;2.17;;;21.20;28.60;;;;;;2252262;61;20451;-62
2023/11/24 00:50:16;0.00;0.00;0.62;0.00;0.00;0.62;2.57;1.20;;;21.20;28.60;;;;;;2251846;61;20390;-60
2023/11/24 00:53:01;0.00;0.00;0.62;0.00;0.00;0.62;2.63;1.60;;;21.20;28.60;;;;;;2248539;61;20414;-59
2023/11/24 00:55:46;0.00;0.00;0.62;0.00;0.00;0.62;3.63;1.67;;;21.20;28.60;;;;;;2251545;61;20370;-58
2023/11/24 00:58:31;0.00;0.00;0.62;0.00;0.00;0.62;2.00;1.37;;;21.20;28.60;;;;;;2252075;61;20434;-62
2023/11/24 01:01:15;0.00;0.00;0.62;0.00;0.00;0.62;2.60;1.40;;;21.20;28.60;;;;;;2251914;61;20385;-61
2023/11/24 01:04:02;0.00;0.00;0.62;0.00;0.00;0.62;2.00;1.30;;;21.20;28.60;;;;;;2251579;61;20359;-60
2023/11/24 01:06:46;0.00;0.00;0.62;0.00;0.00;0.62;3.10;1.70;;;21.20;28.60;;;;;;2251813;61;20935;-59
2023/11/24 01:09:31;0.00;0.00;0.62;0.00;0.00;0.62;2.23;1.30;;;21.20;28.60;;;;;;2251812;61;20494;-61
2023/11/24 01:12:16;0.00;0.00;0.62;0.00;0.00;0.62;2.40;1.47;;;21.20;28.60;;;;;;2251436;61;20379;-59
2023/11/24 01:15:00;0.00;0.00;0.62;0.00;0.00;0.62;3.60;1.30;;;21.20;28.60;;;;;;2252071;61;20426;-56
2023/11/24 01:17:45;0.00;0.00;0.62;0.00;0.00;0.62;2.73;1.60;;;21.20;28.50;;;;;;2251460;61;20426;-57
2023/11/24 01:20:30;0.00;0.00;0.62;0.00;0.00;0.62;3.03;1.47;;;21.20;28.50;;;;;;2251969;61;20367;-61
2023/11/24 01:23:15;0.00;0.00;0.62;0.00;0.00;0.62;2.90;1.60;;;21.20;28.50;;;;;;2251871;61;20410;-59
2023/11/24 01:25:59;0.00;0.00;0.62;0.00;0.00;0.62;2.63;1.87;;;21.20;28.60;;;;;;2255901;61;20420;-60
2023/11/24 01:29:02;0.00;0.00;0.62;0.00;0.00;0.62;2.30;1.30;;;21.20;28.50;;;;;;1676748;74;20631;-58
2023/11/24 01:31:47;0.00;0.00;0.62;0.00;0.00;0.62;2.00;1.13;;;21.20;28.50;;;;;;2267426;61;20371;-57
2023/11/24 01:34:31;0.00;0.00;0.62;0.00;0.00;0.62;2.90;1.50;;;21.20;28.50;;;;;;2267336;61;20489;-60
2023/11/24 01:37:16;0.00;0.00;0.62;0.00;0.00;0.62;3.10;1.40;;;21.20;28.50;;;;;;2267728;61;20495;-58
2023/11/24 01:40:02;0.00;0.00;0.62;0.00;0.00;0.62;3.33;2.27;;;21.20;28.50;;;;;;2267003;61;20379;-60
2023/11/24 01:42:46;0.00;0.00;0.62;0.00;0.00;0.62;3.23;1.30;;;21.20;28.50;;;;;;2267464;61;20888;-60
2023/11/24 01:45:33;0.00;0.00;0.62;0.00;0.00;0.62;1.97;1.30;;;21.20;28.50;;;;;;2267973;61;20371;-56
2023/11/24 01:48:19;0.00;0.00;0.62;0.00;0.00;0.62;1.80;1.27;;;21.20;28.50;;;;;;2267403;61;20429;-63
2023/11/24 01:51:06;0.00;0.00;0.62;0.00;0.00;0.62;2.13;1.20;;;21.20;28.50;;;;;;2267834;61;20410;-63
2023/11/24 01:53:52;0.00;0.00;0.62;0.00;0.00;0.62;2.67;1.23;;;21.20;28.50;;;;;;2266686;61;20892;-56
2023/11/24 01:56:37;0.00;0.00;0.62;0.00;0.00;0.62;2.93;1.60;;;21.20;28.50;;;;;;2267260;61;20542;-56
2023/11/24 01:59:22;0.00;0.00;0.62;0.00;0.00;0.62;2.40;1.37;;;21.20;28.50;;;;;;2267171;61;20425;-58
2023/11/24 02:02:09;0.00;0.00;0.62;0.00;0.00;0.62;2.80;1.37;;;21.20;28.50;;;;;;2267080;61;20413;-59
2023/11/24 02:04:54;0.00;0.00;0.62;0.00;0.00;0.62;3.30;1.50;;;21.10;28.40;;;;;;2264484;61;20513;-61
2023/11/24 02:07:40;0.00;0.00;0.62;0.00;0.00;0.62;3.37;1.97;;;21.20;28.40;;;;;;2267401;61;20387;-60
2023/11/24 02:10:25;0.00;0.00;0.62;0.00;0.00;0.62;4.20;1.43;;;21.20;28.40;;;;;;2267412;61;20399;-58
2023/11/24 02:13:10;0.00;0.00;0.62;0.00;0.00;0.62;2.90;1.40;;;21.20;28.40;;;;;;2267158;61;20387;-60
2023/11/24 02:15:55;0.00;0.00;0.62;0.00;0.00;0.62;2.30;1.30;;;21.20;28.40;;;;;;2260341;61;20374;-59
2023/11/24 02:18:41;0.00;0.00;0.62;0.00;0.00;0.62;2.77;1.30;;;21.20;28.40;;;;;;2267184;61;20470;-61
2023/11/24 02:21:26;0.00;0.00;0.62;0.00;0.00;0.62;2.63;1.37;;;21.10;28.30;;;;;;2267546;61;20379;-63
2023/11/24 02:24:12;0.00;0.00;0.62;0.00;0.00;0.62;3.87;1.77;;;21.20;28.40;;;;;;2266778;61;20359;-60
2023/11/24 02:26:59;0.00;0.00;0.62;0.00;0.00;0.62;2.67;1.47;;;21.10;28.30;;;;;;2267118;61;20445;-59
2023/11/24 02:29:44;0.00;0.00;0.62;0.00;0.00;0.62;2.83;1.30;;;21.10;28.30;;;;;;2267584;61;20891;-60
2023/11/24 02:32:28;0.00;0.00;0.62;0.00;0.00;0.62;3.10;1.50;;;21.10;28.30;;;;;;2266872;61;20787;-61
2023/11/24 02:35:13;0.00;0.00;0.62;0.00;0.00;0.62;2.13;1.13;;;21.10;28.30;;;;;;2267121;61;20793;-60
2023/11/24 02:37:58;0.00;0.00;0.62;0.00;0.00;0.62;2.13;1.20;;;21.10;28.30;;;;;;2267291;61;20455;-59
2023/11/24 02:40:44;0.00;0.00;0.62;0.00;0.00;0.62;4.23;1.70;;;21.10;28.30;;;;;;2264726;61;20368;-64
2023/11/24 02:43:28;0.00;0.00;0.62;0.00;0.00;0.62;2.17;1.63;;;21.10;28.30;;;;;;2264480;61;20503;-56
2023/11/24 02:46:13;0.00;0.00;0.62;0.00;0.00;0.62;2.10;1.20;;;21.10;28.30;;;;;;2264639;61;20368;-58
2023/11/24 02:48:58;0.00;0.00;0.62;0.00;0.00;0.62;2.83;1.00;;;21.10;28.30;;;;;;2264780;61;20396;-58
2023/11/24 02:51:43;0.00;0.00;0.62;0.00;0.00;0.62;2.93;1.33;;;21.10;28.30;;;;;;2264650;61;20411;-58
2023/11/24 02:54:28;0.00;0.00;0.62;0.00;0.00;0.62;3.93;1.37;;;21.10;28.30;;;;;;2264017;61;20848;-60
2023/11/24 02:57:14;0.00;0.00;0.62;0.00;0.00;0.62;3.03;1.50;;;21.10;28.30;;;;;;2264426;61;20356;-58
2023/11/24 03:03:07;0.00;0.00;0.62;0.00;0.00;0.62;3.00;1.33;;;21.10;28.30;;;;;;2257543;61;20940;-59
2023/11/24 03:05:52;0.00;0.00;0.62;0.00;0.00;0.62;2.27;1.23;;;21.10;28.30;;;;;;2256723;61;20469;-59
2023/11/24 03:08:36;0.00;0.00;0.62;0.00;0.00;0.62;2.40;1.57;;;21.10;28.30;;;;;;2256407;61;20925;-57
2023/11/24 03:11:25;0.00;0.00;0.62;0.00;0.00;0.62;2.23;1.37;;;21.10;28.80;;;;;;2256744;61;20645;-59
2023/11/24 03:14:11;0.00;0.00;0.62;0.00;0.00;0.62;2.93;1.53;;;21.10;28.30;;;;;;2256750;61;20369;-63
2023/11/24 03:16:58;0.00;0.00;0.62;0.00;0.00;0.62;2.77;1.07;;;21.10;28.20;;;;;;2256326;61;20779;-60
2023/11/24 03:19:44;0.00;0.00;0.62;0.00;0.00;0.62;1.87;1.20;;;21.10;28.20;;;;;;2258954;61;20382;-54
2023/11/24 03:22:28;0.00;0.00;0.62;0.00;0.00;0.62;2.23;1.10;;;21.10;28.20;;;;;;2256321;61;20420;-61
2023/11/24 03:25:13;0.00;0.00;0.62;0.00;0.00;0.62;3.10;1.30;;;21.00;28.20;;;;;;2258729;61;20365;-59
2023/11/24 03:27:58;0.00;0.00;0.62;0.00;0.00;0.62;4.70;1.40;;;21.10;28.20;;;;;;2256638;61;20782;-59
2023/11/24 03:30:44;0.00;0.00;0.62;0.00;0.00;0.62;2.53;1.53;;;21.10;28.20;;;;;;2256497;61;20394;-60
2023/11/24 03:33:29;0.00;0.00;0.62;0.00;0.00;0.62;1.90;1.00;;;21.00;28.20;;;;;;2256404;61;20401;-58
2023/11/24 03:36:14;0.00;0.00;0.62;0.00;0.00;0.62;3.30;1.13;;;21.10;28.20;;;;;;2256585;61;20368;-60
2023/11/24 03:38:58;0.00;0.00;0.62;0.00;0.00;0.62;3.47;1.57;;;21.00;28.10;;;;;;2256342;61;20381;-57
2023/11/24 03:41:43;0.00;0.00;0.62;0.00;0.00;0.62;2.17;1.20;;;21.00;28.70;;;;;;2256217;61;20454;-59
2023/11/24 03:44:27;0.00;0.00;0.62;0.00;0.00;0.62;3.13;1.13;;;21.00;28.10;;;;;;2256727;61;20369;-61
2023/11/24 03:47:13;0.00;0.00;0.62;0.00;0.00;0.62;2.87;1.20;;;21.00;28.10;;;;;;2256221;61;20389;-61
2023/11/24 03:50:01;0.00;0.00;0.62;0.00;0.00;0.62;2.70;1.33;;;21.00;28.10;;;;;;2256625;61;20413;-60
2023/11/24 03:52:46;0.00;0.00;0.62;0.00;0.00;0.62;3.03;1.10;;;21.00;28.10;;;;;;2256168;61;20382;-60
2023/11/24 03:55:31;0.00;0.00;0.62;0.00;0.00;0.62;2.13;1.27;;;21.00;28.10;;;;;;2256718;61;20812;-57
2023/11/24 03:58:16;0.00;0.00;0.62;0.00;0.00;0.62;4.10;1.47;;;21.00;28.10;;;;;;2256321;61;20501;-60
2023/11/24 04:01:01;0.00;0.00;0.62;0.00;0.00;0.62;2.90;1.30;;;21.00;28.10;;;;;;2256160;61;20373;-59
2023/11/24 04:03:47;0.00;0.00;0.62;0.00;0.00;0.62;2.73;1.10;;;21.00;28.10;;;;;;2258398;61;20401;-61
2023/11/24 04:06:32;0.00;0.00;0.62;0.00;0.00;0.62;3.10;1.50;;;21.00;28.10;;;;;;2256283;61;20410;-60
2023/11/24 04:09:16;0.00;0.00;0.62;0.00;0.00;0.62;1.90;1.10;;;21.00;28.10;;;;;;2256280;61;20440;-62
2023/11/24 04:12:01;0.00;0.00;0.62;0.00;0.00;0.62;2.17;1.27;;;21.00;28.10;;;;;;2256158;61;20453;-59
2023/11/24 04:14:47;0.00;0.00;0.62;0.00;0.00;0.62;3.13;1.20;;;21.00;28.10;;;;;;2258890;61;20413;-60
2023/11/24 04:17:32;0.00;0.00;0.62;0.00;0.00;0.62;2.43;1.43;;;21.00;28.10;;;;;;2576096;45;20754;-55
2023/11/24 04:20:18;0.00;0.00;0.62;0.00;0.00;0.62;2.57;1.43;;;21.00;28.10;;;;;;2252528;61;20378;-59
2023/11/24 04:23:02;0.00;0.00;0.62;0.00;0.00;0.62;1.87;1.00;;;21.00;28.10;;;;;;2252591;61;20375;-59
2023/11/24 04:25:48;0.00;0.00;0.62;0.00;0.00;0.62;3.20;1.33;;;21.00;28.10;;;;;;2258764;61;20366;-58
2023/11/24 04:28:32;0.00;0.00;0.62;0.00;0.00;0.62;4.00;1.50;;;21.00;28.10;;;;;;2259398;61;20402;-55
2023/11/24 04:31:17;0.00;0.00;0.62;0.00;0.00;0.62;3.80;1.47;;;21.00;28.10;;;;;;2258785;61;20366;-57
2023/11/24 04:34:03;0.00;0.00;0.62;0.00;0.00;0.62;3.63;2.23;;;21.00;28.10;;;;;;2259363;61;20949;-58
2023/11/24 04:36:49;0.00;0.00;0.62;0.00;0.00;0.62;3.50;1.70;;;21.00;28.10;;;;;;2258934;61;20897;-58
2023/11/24 04:39:34;0.00;0.00;0.62;0.00;0.00;0.62;2.50;1.50;;;21.00;28.10;;;;;;2259269;61;20904;-55
2023/11/24 04:42:20;0.00;0.00;0.62;0.00;0.00;0.62;4.40;2.13;;;21.00;28.10;;;;;;2258908;61;20370;-60
2023/11/24 04:45:07;0.00;0.00;0.62;0.00;0.00;0.62;2.70;1.90;;;21.00;28.10;;;;;;2258677;61;20361;-56
2023/11/24 04:47:52;0.00;0.00;0.62;0.00;0.00;0.62;4.20;1.87;;;21.00;28.10;;;;;;2258996;61;20393;-62
2023/11/24 04:50:36;0.00;0.00;0.62;0.00;0.00;0.62;3.23;1.80;;;21.00;28.10;;;;;;2259198;61;20366;-56
2023/11/24 04:53:22;0.00;0.00;0.62;0.00;0.00;0.62;2.83;1.97;;;20.90;28.00;;;;;;2258580;61;20408;-60
2023/11/24 04:56:08;0.00;0.00;0.62;0.00;0.00;0.62;3.20;1.73;;;20.90;28.00;;;;;;2259064;61;20925;-60
2023/11/24 04:58:53;0.00;0.00;0.62;0.00;0.00;0.62;3.43;2.53;;;20.90;28.00;;;;;;2259036;61;20982;-54
2023/11/24 05:01:38;0.00;0.00;0.62;0.00;0.00;0.62;3.70;2.10;;;20.90;28.00;;;;;;2258548;61;20454;-58
2023/11/24 05:04:22;0.00;0.00;0.62;0.00;0.00;0.62;4.00;1.70;;;20.90;28.00;;;;;;2259374;61;20376;-54
2023/11/24 05:07:07;0.00;0.00;0.62;0.00;0.00;0.62;3.30;1.70;;;20.90;28.00;;;;;;2258797;61;20944;-61
2023/11/24 05:09:53;0.00;0.00;0.62;0.00;0.00;0.62;5.77;2.30;;;20.90;28.00;;;;;;2259528;61;20386;-55
2023/11/24 05:12:39;0.00;0.00;0.62;0.00;0.00;0.62;3.07;2.20;;;20.90;28.00;;;;;;2259088;61;20381;-56
2023/11/24 05:15:24;0.00;0.00;0.62;0.00;0.00;0.62;3.57;2.10;;;20.90;28.00;;;;;;2258951;61;20412;-57
2023/11/24 05:18:09;0.00;0.00;0.62;0.00;0.00;0.62;3.00;1.90;;;20.90;28.00;;;;;;2259145;61;20393;-60
2023/11/24 05:20:53;0.00;0.00;0.62;0.00;0.00;0.62;4.03;2.30;;;20.90;28.00;;;;;;2258931;61;20682;-59
2023/11/24 05:23:38;0.00;0.00;0.62;0.00;0.00;0.62;3.83;2.20;;;20.90;28.00;;;;;;2257902;61;20361;-61
2023/11/24 05:26:24;0.00;0.00;0.62;0.00;0.00;0.62;3.93;2.30;;;20.90;28.00;;;;;;2256316;61;20771;-63
2023/11/24 05:29:09;0.00;0.00;0.62;0.00;0.00;0.62;6.00;2.17;;;20.90;28.00;;;;;;2255828;61;20496;-61
2023/11/24 05:31:53;0.00;0.00;0.62;0.00;0.00;0.62;3.17;2.00;;;20.90;28.00;;;;;;2256204;61;20361;-55
2023/11/24 05:34:38;0.00;0.00;0.62;0.00;0.00;0.62;3.20;1.87;;;20.90;28.00;;;;;;2256518;61;20377;-64
2023/11/24 05:37:22;0.00;0.00;0.62;0.00;0.00;0.62;3.93;2.00;;;20.90;28.00;;;;;;2256003;61;20384;-59
2023/11/24 05:40:09;0.00;0.00;0.62;0.00;0.00;0.62;4.27;2.10;;;20.90;28.00;;;;;;2256548;61;20385;-56
2023/11/24 05:42:55;0.00;0.00;0.62;0.00;0.00;0.62;3.00;1.90;;;20.90;28.00;;;;;;2256042;61;20393;-60
2023/11/24 05:45:40;0.00;0.00;0.62;0.00;0.00;0.62;3.20;1.93;;;20.90;28.00;;;;;;2255512;61;20362;-61
2023/11/24 05:48:25;0.00;0.00;0.62;0.00;0.00;0.62;4.23;2.20;;;20.90;28.00;;;;;;2256307;61;20464;-60
2023/11/24 05:51:10;0.00;0.00;0.62;0.00;0.00;0.62;3.40;1.93;;;20.90;28.00;;;;;;2256460;61;20423;-58
2023/11/24 05:53:55;0.00;0.00;0.62;0.00;0.00;0.62;2.83;2.10;;;20.90;28.00;;;;;;2255820;61;20397;-57
2023/11/24 05:56:39;0.00;0.00;0.62;0.00;0.00;0.62;3.50;1.90;;;20.80;28.40;;;;;;2256240;61;21002;-61
2023/11/24 05:59:25;0.00;0.00;0.62;0.00;0.00;0.62;2.90;1.70;;;20.90;28.00;;;;;;2256186;61;20397;-58
2023/11/24 06:02:10;0.00;0.00;0.62;0.00;0.00;0.62;3.33;2.20;;;20.90;28.00;;;;;;2255895;61;20837;-59
2023/11/24 06:04:54;0.00;0.00;0.62;0.00;0.00;0.62;2.90;1.87;;;20.80;27.90;;;;;;2256449;61;20358;-60
2023/11/24 06:07:42;0.00;0.00;0.62;0.00;0.00;0.62;4.03;2.27;;;20.80;27.90;;;;;;2255375;61;20385;-58
2023/11/24 06:10:26;0.00;0.00;0.62;0.00;0.00;0.62;3.40;1.90;;;20.80;27.90;;;;;;2256343;61;20409;-56
2023/11/24 06:13:11;0.00;0.00;0.62;0.00;0.00;0.62;3.30;2.07;;;20.80;27.90;;;;;;2256188;61;20442;-57
2023/11/24 06:15:57;0.00;0.00;0.62;0.00;0.00;0.62;4.53;2.77;;;20.80;27.90;;;;;;2257046;61;20369;-58
2023/11/24 06:18:44;0.00;0.00;0.62;0.00;0.00;0.62;3.27;2.00;;;20.80;27.90;;;;;;2256976;61;20417;-60
2023/11/24 06:21:29;0.00;0.00;0.62;0.00;0.00;0.62;2.97;2.27;;;20.80;27.90;;;;;;2256549;61;20365;-56
2023/11/24 06:24:14;0.00;0.00;0.62;0.00;0.00;0.62;4.73;2.73;;;20.80;27.90;;;;;;2257149;61;20404;-60
2023/11/24 06:26:59;0.00;0.00;0.62;0.00;0.00;0.62;4.37;2.63;;;20.80;27.90;;;;;;2256898;61;20370;-60
2023/11/24 06:29:43;0.00;0.00;0.62;0.00;0.00;0.62;3.23;2.40;;;20.80;27.90;;;;;;2256703;61;20385;-58
2023/11/24 06:32:30;0.00;0.00;0.62;0.00;0.00;0.62;3.53;2.27;;;20.80;27.90;;;;;;2256562;61;20420;-58
2023/11/24 06:35:15;0.00;0.00;0.62;0.00;0.00;0.62;4.10;2.60;;;20.80;27.90;;;;;;2257337;61;20402;-55
2023/11/24 06:38:00;0.00;0.00;0.62;0.00;0.00;0.62;5.43;3.20;;;20.80;27.90;;;;;;2256529;61;20366;-61
2023/11/24 06:40:44;0.00;0.00;0.62;0.00;0.00;0.62;3.80;2.63;;;20.80;27.90;;;;;;2257053;61;20390;-58
2023/11/24 06:43:29;0.00;0.00;0.62;0.00;0.00;0.62;4.23;2.93;;;20.80;27.90;;;;;;2255998;61;20925;-54
2023/11/24 06:46:14;0.00;0.00;0.62;0.00;0.00;0.62;5.33;3.30;;;20.80;28.10;;;;;;2257016;61;20887;-59
2023/11/24 06:48:59;0.00;0.00;0.62;0.00;0.00;0.62;7.03;3.20;;;20.80;27.90;;;;;;2256842;61;20398;-60
2023/11/24 06:51:46;0.00;0.00;0.62;0.00;0.00;0.62;5.13;2.97;;;20.80;27.90;;;;;;2255957;61;20420;-59
2023/11/24 06:54:31;0.00;0.00;0.62;0.00;0.00;0.62;5.33;3.07;;;20.80;27.90;;;;;;2256692;61;20834;-54
2023/11/24 06:57:16;0.00;0.00;0.62;0.00;0.00;0.62;5.23;3.30;;;20.80;27.90;;;;;;2256923;61;20393;-57
2023/11/24 07:00:03;0.00;0.00;0.62;0.00;0.00;0.62;4.60;2.87;;;20.80;27.90;;;;;;2256491;61;20505;-59
2023/11/24 07:02:48;0.00;0.00;0.62;0.00;0.00;0.62;4.23;3.03;;;20.70;27.90;;;;;;2256751;61;20369;-58
2023/11/24 07:05:35;0.00;0.00;0.62;0.00;0.00;0.62;4.40;2.70;;;20.70;27.90;;;;;;2256583;61;20385;-59
2023/11/24 07:08:20;0.00;0.00;0.62;0.00;0.00;0.62;4.30;2.93;;;20.70;27.90;;;;;;2256729;61;20406;-61
2023/11/24 07:11:05;0.00;0.00;0.62;0.00;0.00;0.62;4.93;3.23;;;20.80;27.90;;;;;;2256659;61;20413;-59
2023/11/24 07:13:51;0.00;0.00;0.62;0.00;0.00;0.62;6.27;3.10;;;20.70;27.80;;;;;;2256311;61;20362;-58
2023/11/24 07:16:36;0.00;0.00;0.62;0.00;0.00;0.62;6.33;2.80;;;20.70;27.90;;;;;;2256992;61;20406;-60
2023/11/24 07:19:21;0.00;0.00;0.62;0.00;0.00;0.62;7.37;3.47;;;20.70;27.90;;;;;;2256683;61;20472;-59
2023/11/24 07:22:11;0.00;0.00;0.62;0.00;0.00;0.62;4.97;3.07;;;20.70;27.90;;;;;;2256124;61;20432;-59
2023/11/24 07:24:56;0.00;0.00;0.62;0.00;0.00;0.62;7.33;3.10;;;20.70;27.90;;;;;;2256338;61;20358;-56
2023/11/24 07:27:41;0.00;0.00;0.62;0.00;0.00;0.62;8.17;4.50;;;20.70;27.90;;;;;;2253834;61;20965;-60
2023/11/24 07:30:26;0.00;0.00;0.62;0.00;0.00;0.62;5.03;3.00;;;20.70;27.90;;;;;;2252809;61;20391;-58
2023/11/24 07:33:11;0.00;0.00;0.62;0.00;0.00;0.62;3.93;2.60;;;20.70;27.90;;;;;;2252227;61;20479;-58
2023/11/24 07:35:55;0.00;0.00;0.62;0.00;0.00;0.62;6.00;3.63;;;20.70;27.90;;;;;;2252378;61;20382;-60
2023/11/24 07:38:44;0.00;0.00;0.62;0.00;0.00;0.62;5.23;3.47;;;20.70;27.90;;;;;;2252623;61;20378;-55
2023/11/24 07:41:28;0.00;0.00;0.62;0.00;0.00;0.62;4.90;3.60;;;20.70;27.90;;;;;;2252679;61;20375;-58
2023/11/24 07:44:13;0.00;0.00;0.62;0.00;0.00;0.62;5.43;3.50;;;20.70;27.90;;;;;;2252471;61;20367;-53
2023/11/24 07:46:58;0.00;0.00;0.62;0.00;0.00;0.62;5.20;3.57;;;20.70;27.90;;;;;;2252832;61;20440;-60
2023/11/24 07:49:42;0.00;0.00;0.62;0.00;0.00;0.62;5.83;3.63;;;20.70;27.90;;;;;;2252295;61;20386;-57
2023/11/24 07:52:27;0.00;0.00;0.62;0.00;0.00;0.62;5.13;3.10;;;20.70;27.90;;;;;;2251970;61;20449;-54
2023/11/24 07:55:13;0.00;0.00;0.62;0.00;0.00;0.62;4.80;3.30;;;20.70;27.90;;;;;;2258147;58;20372;-60
2023/11/24 07:57:58;0.00;0.00;0.62;0.00;0.00;0.62;4.83;3.73;;;20.70;27.90;;;;;;2256348;61;20413;-57
2023/11/24 08:00:44;0.00;0.00;0.62;0.00;0.00;0.62;4.43;3.40;;;20.70;27.90;;;;;;2256771;61;20415;-60
2023/11/24 08:03:29;0.00;0.00;0.62;0.00;0.00;0.62;5.27;3.47;;;20.70;27.90;;;;;;2256327;61;20389;-60
2023/11/24 08:06:15;0.00;0.00;0.62;0.00;0.00;0.62;4.33;3.30;;;20.70;27.90;;;;;;2256485;61;20398;-57
2023/11/24 08:09:04;0.00;0.00;0.62;0.00;0.00;0.62;4.93;3.40;;;20.70;27.90;;;;;;2256522;61;20393;-60
2023/11/24 08:11:50;0.00;0.00;0.62;0.00;0.00;0.62;5.00;3.70;;;20.70;27.90;;;;;;2256204;61;20783;-56
2023/11/24 08:14:34;0.00;0.00;0.62;0.00;0.00;0.62;5.00;3.37;;;20.70;27.90;;;;;;2256683;61;20365;-59
2023/11/24 08:17:20;0.00;0.00;0.62;0.00;0.00;0.62;4.63;3.07;;;20.70;27.90;;;;;;2256310;61;20405;-59
2023/11/24 08:20:10;0.00;0.00;0.62;0.00;0.00;0.62;4.07;3.20;;;20.70;27.90;;;;;;2256180;61;20381;-59
2023/11/24 08:22:55;0.00;0.00;0.62;0.00;0.00;0.62;6.27;4.10;;;20.70;27.90;;;;;;2256392;61;20767;-57
2023/11/24 08:25:40;0.00;0.00;0.62;0.00;0.00;0.62;3.30;2.60;;;20.70;27.90;;;;;;2256495;61;20391;-59
2023/11/24 08:28:26;0.00;0.00;0.62;0.00;0.00;0.62;4.80;2.97;;;20.70;27.90;;;;;;2255999;61;20393;-56
2023/11/24 08:31:16;0.00;0.00;0.62;0.00;0.00;0.62;3.57;2.47;;;20.70;27.90;;;;;;2256591;61;20370;-60
2023/11/24 08:34:01;0.00;0.00;0.62;0.00;0.00;0.62;5.80;3.50;;;20.70;27.90;;;;;;2256223;61;20405;-56
2023/11/24 08:36:48;0.00;0.00;0.62;0.00;0.00;0.62;4.93;3.20;;;20.60;27.80;;;;;;2256551;61;20981;-57
2023/11/24 08:39:33;0.00;0.00;0.62;0.00;0.00;0.62;4.93;3.50;;;20.60;27.80;;;;;;2256615;61;20417;-59
2023/11/24 08:42:18;0.00;0.00;0.62;0.00;0.00;0.62;4.30;2.97;;;20.60;27.70;;;;;;2256083;61;20781;-58
2023/11/24 08:45:07;0.00;0.00;0.62;0.00;0.00;0.62;5.20;3.00;;;20.60;27.80;;;;;;2256629;61;20365;-56
2023/11/24 08:47:51;0.00;0.00;0.62;0.00;0.00;0.62;3.70;2.50;;;20.60;27.80;;;;;;2256057;61;20412;-60
2023/11/24 08:50:36;0.00;0.00;0.62;0.00;0.00;0.62;4.20;2.83;;;20.60;27.80;;;;;;2256127;61;20905;-58
2023/11/24 08:53:20;0.00;0.00;0.62;0.00;0.00;0.62;3.90;2.57;;;20.60;27.80;;;;;;2256120;61;20448;-61
2023/11/24 08:56:10;0.00;0.00;0.62;0.00;0.00;0.62;4.70;2.80;;;20.70;27.90;;;;;;2256577;61;20393;-60
2023/11/24 08:58:54;0.00;0.00;0.62;0.00;0.00;0.62;4.20;2.67;;;20.60;27.80;;;;;;2256573;61;20493;-57
2023/11/24 09:01:40;0.00;0.00;0.62;0.00;0.00;0.62;4.90;3.23;;;20.60;27.80;;;;;;2256108;61;20445;-57
2023/11/24 09:04:27;0.00;0.00;0.62;0.00;0.00;0.62;3.80;2.17;;;20.60;27.80;;;;;;2256219;61;20370;-59
2023/11/24 09:07:12;0.00;0.00;0.62;0.00;0.00;0.62;3.60;2.20;;;20.60;27.80;;;;;;2256444;61;20453;-55
2023/11/24 09:09:56;0.00;0.00;0.62;0.00;0.00;0.62;3.60;2.70;;;20.60;27.80;;;;;;2256385;61;20388;-57
2023/11/24 09:12:41;0.00;0.00;0.62;0.00;0.00;0.62;3.43;2.10;;;20.60;27.80;;;;;;2255435;61;20366;-57
2023/11/24 09:15:25;0.00;0.00;0.62;0.00;0.00;0.62;4.03;2.80;;;20.60;27.80;;;;;;2256712;61;20902;-57
2023/11/24 09:18:11;0.00;0.00;0.62;0.00;0.00;0.62;3.33;2.20;;;20.60;27.80;;;;;;2256177;61;20374;-59
2023/11/24 09:20:56;0.00;0.00;0.62;0.00;0.00;0.62;3.73;2.70;;;20.70;27.90;;;;;;2256512;61;20374;-60
2023/11/24 09:23:41;0.00;0.00;0.62;0.00;0.00;0.62;4.00;3.00;;;20.60;27.80;;;;;;2255965;61;20361;-59
2023/11/24 09:26:25;0.00;0.00;0.62;0.00;0.00;0.62;3.97;2.60;;;20.60;27.80;;;;;;2256132;61;20365;-55
2023/11/24 09:29:12;0.00;0.00;0.62;0.00;0.00;0.62;5.40;3.40;;;20.70;28.00;;;;;;2256307;61;20385;-59
2023/11/24 09:31:59;0.00;0.00;0.62;0.00;0.00;0.62;3.97;2.80;;;20.70;28.00;;;;;;2255964;61;20652;-59
2023/11/24 09:34:47;0.00;0.00;0.62;0.00;0.00;0.62;3.17;2.40;;;20.70;28.00;;;;;;2255867;61;20365;-62
2023/11/24 09:37:33;0.00;0.00;0.62;0.00;0.00;0.62;3.73;2.47;;;20.70;28.00;;;;;;2256017;61;20366;-62
2023/11/24 09:40:22;0.00;0.00;0.62;0.00;0.00;0.62;3.63;2.40;;;20.70;28.00;;;;;;2256411;61;20786;-56
2023/11/24 09:43:08;0.00;0.00;0.62;0.00;0.00;0.62;3.87;2.83;;;20.70;28.00;;;;;;2255785;61;20362;-61
2023/11/24 09:45:54;0.00;0.00;0.62;0.00;0.00;0.62;3.20;2.30;;;20.70;28.00;;;;;;2256413;61;20665;-58
2023/11/24 09:48:44;0.00;0.00;0.62;0.00;0.00;0.62;4.27;2.73;;;20.70;28.00;;;;;;2255945;61;21005;-58
2023/11/24 09:51:32;0.00;0.00;0.62;0.00;0.00;0.62;3.93;2.43;;;20.70;28.00;;;;;;2256915;61;20484;-59
2023/11/24 09:54:17;0.00;0.00;0.62;0.00;0.00;0.62;4.90;2.70;;;20.80;28.10;;;;;;2257128;61;20409;-58
2023/11/24 09:57:02;0.00;0.00;0.62;0.00;0.00;0.62;4.20;2.60;;;20.80;28.10;;;;;;2256843;61;20405;-56
2023/11/24 09:59:47;0.00;0.00;0.62;0.00;0.00;0.62;4.30;3.00;;;20.80;28.10;;;;;;2256894;61;20389;-58
2023/11/24 10:02:32;0.00;0.00;0.62;0.00;0.00;0.62;3.73;2.50;;;20.80;28.00;;;;;;2256496;61;20373;-54
2023/11/24 10:05:18;0.00;0.00;0.62;0.00;0.00;0.62;3.80;2.57;;;20.80;28.00;;;;;;2257182;61;20810;-57
2023/11/24 10:08:05;0.00;0.00;0.62;0.00;0.00;0.62;3.97;2.50;;;20.80;28.00;;;;;;2256715;61;20412;-58
2023/11/24 10:10:50;0.00;0.00;0.62;0.00;0.00;0.62;4.10;2.30;;;20.80;28.00;;;;;;2256775;61;20370;-59
2023/11/24 10:13:34;0.00;0.00;0.62;0.00;0.00;0.62;4.37;2.57;;;20.80;28.00;;;;;;2256629;61;20393;-59
2023/11/24 10:16:19;0.00;0.00;0.62;0.00;0.00;0.62;3.90;2.73;;;20.80;28.00;;;;;;2256904;61;20388;-58
2023/11/24 10:19:04;0.00;0.00;0.62;0.00;0.00;0.62;4.40;2.53;;;20.80;28.00;;;;;;2256377;61;20432;-61
2023/11/24 10:21:51;0.00;0.00;0.62;0.00;0.00;0.62;3.30;2.70;;;20.80;27.90;;;;;;2256218;61;20381;-57
2023/11/24 10:24:38;0.00;0.00;0.62;0.00;0.00;0.62;3.60;2.23;;;20.80;27.90;;;;;;2259046;61;20481;-59
2023/11/24 10:27:23;0.00;0.00;0.62;0.00;0.00;0.62;4.23;2.57;;;20.90;28.00;;;;;;2259443;61;20378;-59
2023/11/24 10:30:11;0.00;0.00;0.62;0.00;0.00;0.62;3.50;2.50;;;20.90;28.50;;;;;;2259538;61;20657;-58
2023/11/24 10:32:57;0.00;0.00;0.62;0.00;0.00;0.62;4.07;2.70;;;20.90;28.00;;;;;;2258994;61;20416;-63
2023/11/24 10:35:41;0.00;0.00;0.62;0.00;0.00;0.62;3.80;2.43;;;20.90;28.00;;;;;;2259776;61;20362;-60
2023/11/24 10:38:31;0.00;0.00;0.62;0.00;0.00;0.62;2.87;2.10;;;20.90;28.00;;;;;;2260305;61;20385;-57
2023/11/24 10:41:19;0.00;0.00;0.62;0.00;0.00;0.62;3.47;2.33;;;20.90;28.00;;;;;;2258967;61;20446;-57
2023/11/24 10:44:04;0.00;0.00;0.62;0.00;0.00;0.62;3.50;2.07;;;20.90;28.00;;;;;;2259634;61;20370;-57
2023/11/24 10:46:53;0.00;0.00;0.62;0.00;0.00;0.62;4.17;2.10;;;20.90;27.90;;;;;;2259784;61;20773;-59
2023/11/24 10:49:42;0.00;0.00;0.62;0.00;0.00;0.62;3.60;2.67;;;20.90;27.90;;;;;;2259944;61;20405;-57
2023/11/24 10:52:32;0.00;0.00;0.62;0.00;0.00;0.62;4.30;2.60;;;20.90;27.90;;;;;;2259007;61;21207;-58
2023/11/24 10:55:17;0.00;0.00;0.62;0.00;0.00;0.62;4.67;2.80;;;20.90;27.90;;;;;;2259478;61;20366;-58